createdAt,value
2022-12-01T06:50:07.975Z,65.07
2022-12-01T06:53:10.753Z,62.90
2022-12-01T06:56:12.809Z,65.90
2022-12-01T06:59:15.009Z,61.92
2022-12-01T07:02:17.168Z,58.20
2022-12-01T07:05:19.168Z,58.85
2022-12-01T07:08:20.930Z,58.30
2022-12-01T07:11:23.914Z,59.90
2022-12-01T07:14:27.620Z,64.90
2022-12-01T07:17:29.851Z,60.15
2022-12-01T07:20:31.679Z,55.47
2022-12-01T07:23:33.933Z,58.50
2022-12-01T07:26:36.753Z,52.10
2022-12-01T07:29:39.564Z,64.47
2022-12-01T07:32:41.655Z,58.08
2022-12-01T07:35:43.779Z,62.70
2022-12-01T07:38:46.088Z,62.80
2022-12-01T07:41:48.462Z,56.83
2022-12-01T07:44:50.376Z,54.25
2022-12-01T07:47:54.251Z,61.17
2022-12-01T07:50:56.368Z,56.65
2022-12-01T07:54:03.187Z,57.28
2022-12-01T07:57:05.330Z,54.17
2022-12-01T08:00:08.271Z,61.55
2022-12-01T08:03:10.109Z,57.35
2022-12-01T08:06:12.438Z,60.28
2022-12-01T08:09:14.129Z,54.67
2022-12-01T08:12:15.912Z,61.28
2022-12-01T08:15:17.816Z,54.45
2022-12-01T08:18:19.643Z,66.18
2022-12-01T08:21:23.210Z,61.65
2022-12-01T08:24:27.203Z,58.38
2022-12-01T08:27:29.304Z,59.92
2022-12-01T08:30:31.485Z,61.97
2022-12-01T08:33:33.448Z,56.95
2022-12-01T08:36:36.386Z,53.65
2022-12-01T08:39:38.495Z,58.50
2022-12-01T08:42:40.722Z,58.70
2022-12-01T08:45:42.880Z,52.08
2022-12-01T08:48:44.697Z,55.28
2022-12-01T08:51:46.779Z,67.30
2022-12-01T08:54:48.839Z,55.65
2022-12-01T08:57:50.884Z,55.00
2022-12-01T09:00:53.188Z,65.03
2022-12-01T09:04:12.493Z,68.40
2022-12-01T09:07:21.505Z,77.57
2022-12-01T09:10:29.109Z,73.75
2022-12-01T09:13:33.543Z,98.38
2022-12-01T09:16:37.593Z,75.70
2022-12-01T09:19:43.136Z,65.90
2022-12-01T09:22:48.559Z,46.55
2022-12-01T09:25:54.329Z,47.80
2022-12-01T09:29:02.833Z,46.67
2022-12-01T09:32:07.810Z,48.25
2022-12-01T09:35:10.903Z,52.70
2022-12-01T09:38:12.754Z,53.40
2022-12-01T09:41:23.045Z,54.10
2022-12-01T09:44:47.632Z,50.83
2022-12-01T09:47:50.191Z,55.05
2022-12-01T09:50:52.448Z,57.78
2022-12-01T09:53:58.177Z,52.03
2022-12-01T09:57:00.537Z,56.58
2022-12-01T10:00:06.880Z,48.83
2022-12-01T10:03:29.687Z,58.17
2022-12-01T10:06:39.250Z,54.20
2022-12-01T10:09:52.090Z,57.40
2022-12-01T10:12:54.541Z,44.13
2022-12-01T10:16:10.980Z,57.55
2022-12-01T10:19:20.890Z,51.88
2022-12-01T10:22:42.698Z,58.85
2022-12-01T10:25:55.903Z,54.70
2022-12-01T10:29:22.736Z,49.05
2022-12-01T10:32:48.275Z,51.63
2022-12-01T10:35:52.083Z,52.17
2022-12-01T10:38:55.549Z,52.38
2022-12-01T10:42:14.503Z,48.08
2022-12-01T10:45:30.387Z,62.08
2022-12-01T10:48:34.510Z,48.25
2022-12-01T10:51:59.563Z,55.08
2022-12-01T10:55:04.053Z,50.33
2022-12-01T10:58:16.541Z,47.40
2022-12-01T11:01:24.437Z,43.67
2022-12-01T11:04:35.153Z,50.28
2022-12-01T11:07:46.613Z,48.55
2022-12-01T11:10:50.347Z,48.42
2022-12-01T11:13:54.152Z,48.17
2022-12-01T11:16:57.265Z,49.00
2022-12-01T11:20:17.393Z,52.20
2022-12-01T11:23:21.148Z,51.35
2022-12-01T11:26:34.959Z,44.67
2022-12-01T11:29:40.202Z,49.33
2022-12-01T11:35:54.689Z,46.10
2022-12-01T11:39:00.491Z,49.17
2022-12-01T11:42:07.221Z,45.85
2022-12-01T11:45:22.701Z,40.45
2022-12-01T11:48:28.055Z,45.13
2022-12-01T11:51:37.627Z,43.33
2022-12-01T11:54:56.980Z,42.22
2022-12-01T11:58:03.863Z,40.53
2022-12-01T12:01:21.833Z,46.67
2022-12-01T12:04:55.657Z,42.35
2022-12-01T12:08:23.922Z,40.45
2022-12-01T12:11:36.195Z,46.55
2022-12-01T12:15:04.317Z,42.97
2022-12-01T12:18:46.071Z,51.67
2022-12-01T12:22:07.472Z,41.28
2022-12-01T12:25:35.876Z,42.88
2022-12-01T12:29:17.732Z,40.65
2022-12-01T12:32:32.726Z,45.28
2022-12-01T12:35:42.575Z,48.38
2022-12-01T12:39:16.274Z,41.03
2022-12-01T12:42:33.754Z,39.67
2022-12-01T12:46:00.981Z,39.63
2022-12-01T12:49:34.717Z,43.42
2022-12-01T12:52:42.135Z,41.00
2022-12-01T12:55:50.223Z,42.30
2022-12-01T12:58:57.212Z,38.95
2022-12-01T13:02:39.484Z,41.63
2022-12-01T13:05:52.866Z,41.47
2022-12-01T13:09:22.630Z,41.33
2022-12-01T13:12:34.462Z,42.90
2022-12-01T13:15:38.020Z,37.25
2022-12-01T13:18:47.680Z,43.30
2022-12-01T13:21:51.302Z,39.92
2022-12-01T13:24:53.155Z,48.45
2022-12-01T13:27:57.165Z,40.47
2022-12-01T13:31:05.397Z,39.50
2022-12-01T13:34:07.261Z,43.97
2022-12-01T13:37:10.709Z,38.10
2022-12-01T13:40:32.497Z,39.42
2022-12-01T13:43:35.293Z,44.72
2022-12-01T13:46:45.399Z,41.88
2022-12-01T13:49:49.577Z,45.90
2022-12-01T13:53:10.793Z,44.13
2022-12-01T13:56:26.517Z,37.83
2022-12-01T14:00:03.168Z,43.13
2022-12-01T14:03:20.738Z,40.70
2022-12-01T14:06:49.029Z,40.78
2022-12-01T14:09:53.908Z,42.30
2022-12-01T14:12:59.495Z,35.58
2022-12-01T14:16:03.692Z,41.92
2022-12-01T14:19:05.881Z,40.20
2022-12-01T14:22:28.159Z,41.20
2022-12-01T14:25:31.995Z,40.60
2022-12-01T14:29:07.477Z,40.80
2022-12-01T14:32:09.372Z,41.50
2022-12-01T14:35:13.963Z,42.65
2022-12-01T14:38:16.435Z,61.95
2022-12-01T14:41:28.651Z,44.65
2022-12-01T14:44:43.079Z,49.75
2022-12-01T14:48:04.559Z,40.20
2022-12-01T14:51:15.223Z,36.45
2022-12-01T14:54:25.066Z,47.30
2022-12-01T14:57:36.952Z,44.60
2022-12-01T15:00:54.505Z,40.83
2022-12-01T15:04:00.493Z,43.60
2022-12-01T15:07:02.503Z,45.88
2022-12-01T15:10:06.569Z,44.00
2022-12-01T15:13:23.931Z,44.60
2022-12-01T15:16:30.585Z,44.13
2022-12-01T15:19:37.969Z,43.05
2022-12-01T15:22:41.264Z,45.67
2022-12-01T15:25:45.650Z,43.50
2022-12-01T15:28:51.067Z,40.38
2022-12-01T15:31:55.779Z,38.55
2022-12-01T15:35:01.940Z,41.80
2022-12-01T15:38:04.336Z,44.00
2022-12-01T15:41:28.657Z,39.90
2022-12-01T15:44:32.788Z,45.47
2022-12-01T15:47:43.791Z,42.70
2022-12-01T15:50:59.148Z,39.72
2022-12-01T15:54:02.598Z,42.22
2022-12-01T15:57:05.437Z,42.65
2022-12-01T16:00:17.401Z,36.70
2022-12-01T16:03:19.476Z,41.28
2022-12-01T16:06:25.413Z,40.10
2022-12-01T16:09:36.079Z,39.03
2022-12-01T16:12:38.028Z,37.83
2022-12-01T16:15:44.246Z,38.65
2022-12-01T16:18:55.881Z,40.75
2022-12-01T16:22:05.008Z,39.75
2022-12-01T16:25:15.774Z,42.30
2022-12-01T16:28:31.834Z,46.15
2022-12-01T16:31:33.702Z,41.60
2022-12-01T16:34:46.215Z,42.22
2022-12-01T16:37:48.549Z,39.15
2022-12-01T16:40:54.268Z,34.60
2022-12-01T16:44:26.631Z,38.08
2022-12-01T16:47:21.528Z,40.85
2022-12-01T16:50:23.339Z,34.28
2022-12-01T16:53:25.023Z,38.25
2022-12-01T16:56:27.061Z,37.75
2022-12-01T16:59:28.839Z,41.42
